sensor_id;sensor_type;location;lat;lon;timestamp;pressure;altitude;pressure_sealevel;temperature
60731;BMP280;46580;52.114;11.674;2022-09-12T00:02:24;101262.63;;;14.83
60731;BMP280;46580;52.114;11.674;2022-09-12T00:04:49;101261.81;;;14.83
60731;BMP280;46580;52.114;11.674;2022-09-12T00:07:15;101260.56;;;14.77
60731;BMP280;46580;52.114;11.674;2022-09-12T00:09:40;101258.63;;;14.70
60731;BMP280;46580;52.114;11.674;2022-09-12T00:12:06;101259.97;;;14.65
60731;BMP280;46580;52.114;11.674;2022-09-12T00:14:31;101257.88;;;14.59
60731;BMP280;46580;52.114;11.674;2022-09-12T00:16:58;101259.91;;;14.55
60731;BMP280;46580;52.114;11.674;2022-09-12T00:19:25;101258.63;;;14.50
60731;BMP280;46580;52.114;11.674;2022-09-12T00:21:53;101264.22;;;14.46
60731;BMP280;46580;52.114;11.674;2022-09-12T00:24:19;101271.28;;;14.44
60731;BMP280;46580;52.114;11.674;2022-09-12T00:26:45;101268.25;;;14.39
60731;BMP280;46580;52.114;11.674;2022-09-12T00:29:18;101272.50;;;14.40
60731;BMP280;46580;52.114;11.674;2022-09-12T00:31:44;101274.97;;;14.41
60731;BMP280;46580;52.114;11.674;2022-09-12T00:34:09;101267.19;;;14.41
60731;BMP280;46580;52.114;11.674;2022-09-12T00:36:35;101260.50;;;14.39
60731;BMP280;46580;52.114;11.674;2022-09-12T00:39:02;101271.69;;;14.39
60731;BMP280;46580;52.114;11.674;2022-09-12T00:41:33;101276.47;;;14.44
60731;BMP280;46580;52.114;11.674;2022-09-12T00:44:02;101262.47;;;14.55
60731;BMP280;46580;52.114;11.674;2022-09-12T00:46:43;101256.13;;;14.59
60731;BMP280;46580;52.114;11.674;2022-09-12T00:49:26;101259.66;;;14.58
60731;BMP280;46580;52.114;11.674;2022-09-12T00:52:08;101255.84;;;14.62
60731;BMP280;46580;52.114;11.674;2022-09-12T00:57:15;101260.47;;;14.59
60731;BMP280;46580;52.114;11.674;2022-09-12T00:59:48;101258.00;;;14.57
60731;BMP280;46580;52.114;11.674;2022-09-12T01:02:15;101255.00;;;14.52
60731;BMP280;46580;52.114;11.674;2022-09-12T01:04:41;101259.09;;;14.55
60731;BMP280;46580;52.114;11.674;2022-09-12T01:07:07;101250.22;;;14.57
60731;BMP280;46580;52.114;11.674;2022-09-12T01:09:33;101246.19;;;14.64
60731;BMP280;46580;52.114;11.674;2022-09-12T01:12:00;101248.53;;;14.67
60731;BMP280;46580;52.114;11.674;2022-09-12T01:14:26;101241.06;;;14.73
60731;BMP280;46580;52.114;11.674;2022-09-12T01:16:52;101246.66;;;14.78
60731;BMP280;46580;52.114;11.674;2022-09-12T01:31:07;101243.47;;;14.66
60731;BMP280;46580;52.114;11.674;2022-09-12T01:33:56;101241.06;;;14.73
60731;BMP280;46580;52.114;11.674;2022-09-12T01:39:11;101234.69;;;14.87
60731;BMP280;46580;52.114;11.674;2022-09-12T01:44:52;101223.25;;;14.89
60731;BMP280;46580;52.114;11.674;2022-09-12T01:47:35;101228.50;;;14.98
60731;BMP280;46580;52.114;11.674;2022-09-12T01:50:49;101219.16;;;15.16
60731;BMP280;46580;52.114;11.674;2022-09-12T01:52:58;101219.97;;;15.25
60731;BMP280;46580;52.114;11.674;2022-09-12T01:55:31;101214.75;;;15.16
60731;BMP280;46580;52.114;11.674;2022-09-12T01:58:07;101224.47;;;15.14
60731;BMP280;46580;52.114;11.674;2022-09-12T02:00:38;101214.91;;;15.15
60731;BMP280;46580;52.114;11.674;2022-09-12T02:03:08;101213.13;;;15.15
60731;BMP280;46580;52.114;11.674;2022-09-12T02:05:40;101220.47;;;15.10
60731;BMP280;46580;52.114;11.674;2022-09-12T02:08:09;101223.88;;;15.02
60731;BMP280;46580;52.114;11.674;2022-09-12T02:10:43;101214.59;;;14.99
60731;BMP280;46580;52.114;11.674;2022-09-12T02:13:16;101203.47;;;14.88
60731;BMP280;46580;52.114;11.674;2022-09-12T02:15:47;101215.84;;;14.75
60731;BMP280;46580;52.114;11.674;2022-09-12T02:18:15;101211.56;;;14.65
60731;BMP280;46580;52.114;11.674;2022-09-12T02:20:44;101211.78;;;14.62
60731;BMP280;46580;52.114;11.674;2022-09-12T02:23:14;101203.06;;;14.63
60731;BMP280;46580;52.114;11.674;2022-09-12T02:25:43;101208.53;;;14.60
60731;BMP280;46580;52.114;11.674;2022-09-12T02:28:13;101205.13;;;14.60
60731;BMP280;46580;52.114;11.674;2022-09-12T02:30:51;101206.88;;;14.59
60731;BMP280;46580;52.114;11.674;2022-09-12T02:33:26;101203.06;;;14.54
60731;BMP280;46580;52.114;11.674;2022-09-12T02:36:10;101198.44;;;14.37
60731;BMP280;46580;52.114;11.674;2022-09-12T02:38:43;101195.97;;;14.36
60731;BMP280;46580;52.114;11.674;2022-09-12T02:41:10;101197.91;;;14.34
60731;BMP280;46580;52.114;11.674;2022-09-12T02:43:36;101198.41;;;14.28
60731;BMP280;46580;52.114;11.674;2022-09-12T02:46:05;101204.91;;;14.23
60731;BMP280;46580;52.114;11.674;2022-09-12T02:48:34;101206.50;;;14.14
60731;BMP280;46580;52.114;11.674;2022-09-12T02:51:02;101202.50;;;14.11
60731;BMP280;46580;52.114;11.674;2022-09-12T02:53:27;101200.81;;;14.00
60731;BMP280;46580;52.114;11.674;2022-09-12T02:55:53;101208.72;;;13.99
60731;BMP280;46580;52.114;11.674;2022-09-12T02:58:24;101200.94;;;13.99
60731;BMP280;46580;52.114;11.674;2022-09-12T03:03:59;101202.41;;;13.92
60731;BMP280;46580;52.114;11.674;2022-09-12T03:06:41;101205.91;;;13.91
60731;BMP280;46580;52.114;11.674;2022-09-12T03:09:19;101203.56;;;13.88
60731;BMP280;46580;52.114;11.674;2022-09-12T03:22:51;101204.97;;;13.81
60731;BMP280;46580;52.114;11.674;2022-09-12T03:25:21;101185.47;;;13.88
60731;BMP280;46580;52.114;11.674;2022-09-12T03:28:16;101196.00;;;13.96
60731;BMP280;46580;52.114;11.674;2022-09-12T03:30:45;101194.97;;;13.68
60731;BMP280;46580;52.114;11.674;2022-09-12T03:33:13;101197.38;;;13.49
60731;BMP280;46580;52.114;11.674;2022-09-12T03:35:38;101196.56;;;13.69
60731;BMP280;46580;52.114;11.674;2022-09-12T03:38:04;101192.53;;;13.56
60731;BMP280;46580;52.114;11.674;2022-09-12T03:40:32;101197.41;;;13.38
60731;BMP280;46580;52.114;11.674;2022-09-12T03:42:58;101202.53;;;13.19
60731;BMP280;46580;52.114;11.674;2022-09-12T03:45:23;101209.00;;;13.13
60731;BMP280;46580;52.114;11.674;2022-09-12T03:47:49;101209.19;;;13.21
60731;BMP280;46580;52.114;11.674;2022-09-12T03:50:17;101210.03;;;13.21
60731;BMP280;46580;52.114;11.674;2022-09-12T03:52:42;101209.41;;;13.29
60731;BMP280;46580;52.114;11.674;2022-09-12T03:55:08;101209.91;;;13.34
60731;BMP280;46580;52.114;11.674;2022-09-12T03:57:33;101212.25;;;13.26
60731;BMP280;46580;52.114;11.674;2022-09-12T03:59:59;101211.56;;;13.24
60731;BMP280;46580;52.114;11.674;2022-09-12T04:02:26;101214.81;;;13.37
60731;BMP280;46580;52.114;11.674;2022-09-12T04:04:51;101216.94;;;13.32
60731;BMP280;46580;52.114;11.674;2022-09-12T04:07:17;101216.19;;;13.51
60731;BMP280;46580;52.114;11.674;2022-09-12T04:09:42;101208.25;;;13.33
60731;BMP280;46580;52.114;11.674;2022-09-12T04:12:08;101211.44;;;13.15
60731;BMP280;46580;52.114;11.674;2022-09-12T04:14:33;101207.94;;;13.05
60731;BMP280;46580;52.114;11.674;2022-09-12T04:16:59;101213.59;;;12.99
60731;BMP280;46580;52.114;11.674;2022-09-12T04:19:25;101216.91;;;12.90
60731;BMP280;46580;52.114;11.674;2022-09-12T04:21:51;101209.38;;;12.98
60731;BMP280;46580;52.114;11.674;2022-09-12T04:24:16;101214.78;;;13.06
60731;BMP280;46580;52.114;11.674;2022-09-12T04:26:42;101209.25;;;13.00
60731;BMP280;46580;52.114;11.674;2022-09-12T04:29:10;101220.75;;;12.96
60731;BMP280;46580;52.114;11.674;2022-09-12T04:31:35;101216.53;;;12.84
60731;BMP280;46580;52.114;11.674;2022-09-12T04:34:00;101215.84;;;12.82
60731;BMP280;46580;52.114;11.674;2022-09-12T04:36:27;101213.97;;;12.84
60731;BMP280;46580;52.114;11.674;2022-09-12T04:38:53;101217.75;;;12.80
60731;BMP280;46580;52.114;11.674;2022-09-12T04:41:27;101222.91;;;12.80
60731;BMP280;46580;52.114;11.674;2022-09-12T04:43:55;101224.16;;;12.96
60731;BMP280;46580;52.114;11.674;2022-09-12T04:46:23;101217.72;;;12.91
60731;BMP280;46580;52.114;11.674;2022-09-12T04:48:49;101217.72;;;12.91
60731;BMP280;46580;52.114;11.674;2022-09-12T04:51:20;101220.88;;;12.94
60731;BMP280;46580;52.114;11.674;2022-09-12T04:53:50;101221.00;;;12.93
60731;BMP280;46580;52.114;11.674;2022-09-12T04:56:16;101217.94;;;12.88
60731;BMP280;46580;52.114;11.674;2022-09-12T04:58:41;101230.41;;;12.83
60731;BMP280;46580;52.114;11.674;2022-09-12T05:01:09;101236.03;;;12.88
60731;BMP280;46580;52.114;11.674;2022-09-12T05:03:35;101228.16;;;12.89
60731;BMP280;46580;52.114;11.674;2022-09-12T05:06:04;101221.59;;;12.85
60731;BMP280;46580;52.114;11.674;2022-09-12T05:08:30;101233.25;;;12.80
60731;BMP280;46580;52.114;11.674;2022-09-12T05:10:55;101222.16;;;12.89
60731;BMP280;46580;52.114;11.674;2022-09-12T05:13:21;101240.16;;;12.90
60731;BMP280;46580;52.114;11.674;2022-09-12T05:15:56;101228.88;;;12.91
60731;BMP280;46580;52.114;11.674;2022-09-12T05:18:25;101228.75;;;12.93
60731;BMP280;46580;52.114;11.674;2022-09-12T05:20:52;101229.81;;;12.90
60731;BMP280;46580;52.114;11.674;2022-09-12T05:23:17;101239.09;;;12.93
60731;BMP280;46580;52.114;11.674;2022-09-12T05:25:50;101245.66;;;12.97
60731;BMP280;46580;52.114;11.674;2022-09-12T05:28:17;101236.25;;;12.96
60731;BMP280;46580;52.114;11.674;2022-09-12T05:30:42;101242.38;;;13.05
60731;BMP280;46580;52.114;11.674;2022-09-12T05:33:08;101231.31;;;13.14
60731;BMP280;46580;52.114;11.674;2022-09-12T05:35:33;101234.47;;;13.18
60731;BMP280;46580;52.114;11.674;2022-09-12T05:37:58;101241.78;;;13.13
60731;BMP280;46580;52.114;11.674;2022-09-12T05:40:24;101242.13;;;13.19
60731;BMP280;46580;52.114;11.674;2022-09-12T05:42:49;101243.47;;;13.44
60731;BMP280;46580;52.114;11.674;2022-09-12T05:45:17;101248.03;;;13.41
60731;BMP280;46580;52.114;11.674;2022-09-12T05:47:45;101248.97;;;13.51
60731;BMP280;46580;52.114;11.674;2022-09-12T05:50:10;101251.88;;;13.68
60731;BMP280;46580;52.114;11.674;2022-09-12T05:52:36;101250.09;;;13.68
60731;BMP280;46580;52.114;11.674;2022-09-12T05:55:03;101247.81;;;13.75
60731;BMP280;46580;52.114;11.674;2022-09-12T05:57:28;101249.59;;;13.85
60731;BMP280;46580;52.114;11.674;2022-09-12T05:59:54;101254.66;;;13.86
60731;BMP280;46580;52.114;11.674;2022-09-12T06:02:19;101253.53;;;13.99
60731;BMP280;46580;52.114;11.674;2022-09-12T06:04:45;101257.16;;;14.08
60731;BMP280;46580;52.114;11.674;2022-09-12T06:07:10;101265.09;;;14.15
60731;BMP280;46580;52.114;11.674;2022-09-12T06:09:36;101265.88;;;14.27
60731;BMP280;46580;52.114;11.674;2022-09-12T06:12:01;101264.03;;;14.38
60731;BMP280;46580;52.114;11.674;2022-09-12T06:14:29;101262.56;;;14.45
60731;BMP280;46580;52.114;11.674;2022-09-12T06:17:02;101256.63;;;14.53
60731;BMP280;46580;52.114;11.674;2022-09-12T06:19:30;101258.28;;;14.54
60731;BMP280;46580;52.114;11.674;2022-09-12T06:21:56;101247.91;;;14.54
60731;BMP280;46580;52.114;11.674;2022-09-12T06:24:21;101253.09;;;14.54
60731;BMP280;46580;52.114;11.674;2022-09-12T06:26:48;101252.13;;;14.55
60731;BMP280;46580;52.114;11.674;2022-09-12T06:29:14;101253.53;;;14.59
60731;BMP280;46580;52.114;11.674;2022-09-12T06:31:41;101247.13;;;14.63
60731;BMP280;46580;52.114;11.674;2022-09-12T06:34:09;101253.72;;;14.76
60731;BMP280;46580;52.114;11.674;2022-09-12T06:36:44;101250.34;;;14.96
60731;BMP280;46580;52.114;11.674;2022-09-12T06:39:17;101241.22;;;15.10
60731;BMP280;46580;52.114;11.674;2022-09-12T06:41:44;101243.19;;;15.27
60731;BMP280;46580;52.114;11.674;2022-09-12T06:44:12;101246.75;;;15.35
60731;BMP280;46580;52.114;11.674;2022-09-12T06:46:38;101253.47;;;15.47
60731;BMP280;46580;52.114;11.674;2022-09-12T06:49:03;101248.84;;;15.60
60731;BMP280;46580;52.114;11.674;2022-09-12T06:51:32;101251.06;;;16.29
60731;BMP280;46580;52.114;11.674;2022-09-12T06:53:58;101241.56;;;16.46
60731;BMP280;46580;52.114;11.674;2022-09-12T06:56:25;101238.19;;;16.18
60731;BMP280;46580;52.114;11.674;2022-09-12T06:58:53;101239.59;;;16.13
60731;BMP280;46580;52.114;11.674;2022-09-12T07:01:21;101237.13;;;16.30
60731;BMP280;46580;52.114;11.674;2022-09-12T07:03:49;101236.25;;;16.38
60731;BMP280;46580;52.114;11.674;2022-09-12T07:06:16;101229.16;;;16.40
60731;BMP280;46580;52.114;11.674;2022-09-12T07:08:42;101242.09;;;16.59
60731;BMP280;46580;52.114;11.674;2022-09-12T07:11:09;101240.63;;;16.47
60731;BMP280;46580;52.114;11.674;2022-09-12T07:13:36;101228.19;;;16.51
60731;BMP280;46580;52.114;11.674;2022-09-12T07:16:02;101236.09;;;16.94
60731;BMP280;46580;52.114;11.674;2022-09-12T07:18:28;101232.06;;;16.73
60731;BMP280;46580;52.114;11.674;2022-09-12T07:20:53;101231.97;;;17.01
60731;BMP280;46580;52.114;11.674;2022-09-12T07:23:19;101237.63;;;16.78
60731;BMP280;46580;52.114;11.674;2022-09-12T07:25:53;101240.81;;;16.72
60731;BMP280;46580;52.114;11.674;2022-09-12T07:28:31;101238.88;;;16.83
60731;BMP280;46580;52.114;11.674;2022-09-12T07:30:57;101240.53;;;16.75
60731;BMP280;46580;52.114;11.674;2022-09-12T07:33:25;101238.63;;;16.77
60731;BMP280;46580;52.114;11.674;2022-09-12T07:35:51;101236.69;;;16.79
60731;BMP280;46580;52.114;11.674;2022-09-12T07:38:19;101236.19;;;17.28
60731;BMP280;46580;52.114;11.674;2022-09-12T07:40:44;101240.91;;;17.59
60731;BMP280;46580;52.114;11.674;2022-09-12T07:43:09;101231.81;;;17.72
60731;BMP280;46580;52.114;11.674;2022-09-12T07:45:35;101227.28;;;17.91
60731;BMP280;46580;52.114;11.674;2022-09-12T07:48:00;101229.94;;;17.82
60731;BMP280;46580;52.114;11.674;2022-09-12T07:50:26;101234.47;;;17.63
60731;BMP280;46580;52.114;11.674;2022-09-12T07:52:54;101225.47;;;17.74
60731;BMP280;46580;52.114;11.674;2022-09-12T07:55:20;101233.13;;;17.76
60731;BMP280;46580;52.114;11.674;2022-09-12T07:57:52;101220.94;;;17.93
60731;BMP280;46580;52.114;11.674;2022-09-12T08:00:21;101227.31;;;17.82
60731;BMP280;46580;52.114;11.674;2022-09-12T08:02:53;101230.44;;;17.68
60731;BMP280;46580;52.114;11.674;2022-09-12T08:05:20;101236.41;;;17.78
60731;BMP280;46580;52.114;11.674;2022-09-12T08:07:46;101222.84;;;18.25
60731;BMP280;46580;52.114;11.674;2022-09-12T08:10:11;101230.81;;;18.49
60731;BMP280;46580;52.114;11.674;2022-09-12T08:12:37;101228.97;;;18.42
60731;BMP280;46580;52.114;11.674;2022-09-12T08:15:05;101234.91;;;18.51
60731;BMP280;46580;52.114;11.674;2022-09-12T08:17:30;101237.88;;;18.81
60731;BMP280;46580;52.114;11.674;2022-09-12T08:19:55;101236.91;;;18.82
60731;BMP280;46580;52.114;11.674;2022-09-12T08:22:22;101238.41;;;18.60
60731;BMP280;46580;52.114;11.674;2022-09-12T08:24:47;101233.72;;;18.96
60731;BMP280;46580;52.114;11.674;2022-09-12T08:27:14;101242.41;;;18.71
60731;BMP280;46580;52.114;11.674;2022-09-12T08:29:40;101238.91;;;18.63
60731;BMP280;46580;52.114;11.674;2022-09-12T08:32:05;101234.63;;;18.79
60731;BMP280;46580;52.114;11.674;2022-09-12T08:34:30;101238.19;;;18.78
60731;BMP280;46580;52.114;11.674;2022-09-12T08:36:56;101242.28;;;18.80
60731;BMP280;46580;52.114;11.674;2022-09-12T08:39:22;101242.56;;;19.02
60731;BMP280;46580;52.114;11.674;2022-09-12T08:42:04;101245.06;;;18.87
60731;BMP280;46580;52.114;11.674;2022-09-12T08:45:01;101242.56;;;19.02
60731;BMP280;46580;52.114;11.674;2022-09-12T08:47:39;101231.50;;;19.16
60731;BMP280;46580;52.114;11.674;2022-09-12T08:50:18;101232.56;;;19.31
60731;BMP280;46580;52.114;11.674;2022-09-12T08:55:57;101225.50;;;19.72
60731;BMP280;46580;52.114;11.674;2022-09-12T08:58:27;101225.84;;;19.84
60731;BMP280;46580;52.114;11.674;2022-09-12T09:17:25;101217.81;;;20.32
60731;BMP280;46580;52.114;11.674;2022-09-12T09:25:06;101211.72;;;20.63
60731;BMP280;46580;52.114;11.674;2022-09-12T09:27:40;101206.16;;;20.74
60731;BMP280;46580;52.114;11.674;2022-09-12T09:30:19;101210.56;;;20.81
60731;BMP280;46580;52.114;11.674;2022-09-12T09:32:51;101205.44;;;20.95
60731;BMP280;46580;52.114;11.674;2022-09-12T09:38:00;101207.16;;;20.65
60731;BMP280;46580;52.114;11.674;2022-09-12T09:45:44;101194.00;;;20.88
60731;BMP280;46580;52.114;11.674;2022-09-12T09:50:35;101200.63;;;21.06
60731;BMP280;46580;52.114;11.674;2022-09-12T09:53:02;101197.28;;;21.28
60731;BMP280;46580;52.114;11.674;2022-09-12T09:55:32;101194.53;;;21.22
60731;BMP280;46580;52.114;11.674;2022-09-12T09:58:02;101191.72;;;21.23
60731;BMP280;46580;52.114;11.674;2022-09-12T10:00:34;101181.81;;;21.03
60731;BMP280;46580;52.114;11.674;2022-09-12T10:05:52;101179.31;;;21.09
60731;BMP280;46580;52.114;11.674;2022-09-12T10:08:24;101181.31;;;21.15
60731;BMP280;46580;52.114;11.674;2022-09-12T10:11:08;101182.63;;;21.41
60731;BMP280;46580;52.114;11.674;2022-09-12T10:13:54;101175.16;;;21.30
60731;BMP280;46580;52.114;11.674;2022-09-12T10:16:26;101170.28;;;21.27
60731;BMP280;46580;52.114;11.674;2022-09-12T10:18:59;101162.91;;;21.23
60731;BMP280;46580;52.114;11.674;2022-09-12T10:24:15;101168.69;;;21.11
60731;BMP280;46580;52.114;11.674;2022-09-12T10:26:48;101167.88;;;20.81
60731;BMP280;46580;52.114;11.674;2022-09-12T10:29:27;101161.78;;;20.88
60731;BMP280;46580;52.114;11.674;2022-09-12T10:31:57;101158.44;;;21.02
60731;BMP280;46580;52.114;11.674;2022-09-12T10:34:38;101163.72;;;21.53
60731;BMP280;46580;52.114;11.674;2022-09-12T10:37:08;101159.09;;;21.99
60731;BMP280;46580;52.114;11.674;2022-09-12T10:39:34;101146.75;;;22.07
60731;BMP280;46580;52.114;11.674;2022-09-12T10:42:02;101149.97;;;21.95
60731;BMP280;46580;52.114;11.674;2022-09-12T10:44:31;101147.34;;;21.95
60731;BMP280;46580;52.114;11.674;2022-09-12T10:46:58;101148.88;;;21.90
60731;BMP280;46580;52.114;11.674;2022-09-12T10:49:34;101149.97;;;21.73
60731;BMP280;46580;52.114;11.674;2022-09-12T10:52:20;101144.91;;;21.94
60731;BMP280;46580;52.114;11.674;2022-09-12T10:54:47;101142.47;;;22.06
60731;BMP280;46580;52.114;11.674;2022-09-12T11:00:12;101136.53;;;21.76
60731;BMP280;46580;52.114;11.674;2022-09-12T11:02:50;101142.03;;;22.17
60731;BMP280;46580;52.114;11.674;2022-09-12T11:19:16;101135.28;;;21.64
60731;BMP280;46580;52.114;11.674;2022-09-12T11:22:18;101129.03;;;22.09
60731;BMP280;46580;52.114;11.674;2022-09-12T11:32:45;101113.59;;;22.71
60731;BMP280;46580;52.114;11.674;2022-09-12T11:35:29;101108.69;;;22.68
60731;BMP280;46580;52.114;11.674;2022-09-12T11:46:30;101105.84;;;21.98
60731;BMP280;46580;52.114;11.674;2022-09-12T11:49:03;101094.94;;;22.23
60731;BMP280;46580;52.114;11.674;2022-09-12T11:56:52;101094.56;;;22.54
60731;BMP280;46580;52.114;11.674;2022-09-12T11:59:31;101086.25;;;22.65
60731;BMP280;46580;52.114;11.674;2022-09-12T12:01:59;101088.16;;;23.06
60731;BMP280;46580;52.114;11.674;2022-09-12T12:04:40;101088.84;;;23.14
60731;BMP280;46580;52.114;11.674;2022-09-12T12:07:10;101087.44;;;23.32
60731;BMP280;46580;52.114;11.674;2022-09-12T12:09:45;101084.66;;;23.19
60731;BMP280;46580;52.114;11.674;2022-09-12T12:12:15;101086.69;;;23.17
60731;BMP280;46580;52.114;11.674;2022-09-12T12:14:45;101083.88;;;23.39
60731;BMP280;46580;52.114;11.674;2022-09-12T12:17:17;101085.72;;;23.66
60731;BMP280;46580;52.114;11.674;2022-09-12T12:19:44;101077.19;;;23.37
60731;BMP280;46580;52.114;11.674;2022-09-12T12:22:21;101081.03;;;23.20
60731;BMP280;46580;52.114;11.674;2022-09-12T12:24:54;101072.50;;;23.32
60731;BMP280;46580;52.114;11.674;2022-09-12T12:27:44;101067.88;;;23.34
60731;BMP280;46580;52.114;11.674;2022-09-12T12:38:43;101068.50;;;22.53
60731;BMP280;46580;52.114;11.674;2022-09-12T12:46:13;101062.38;;;22.95
60731;BMP280;46580;52.114;11.674;2022-09-12T12:51:55;101061.56;;;22.94
60731;BMP280;46580;52.114;11.674;2022-09-12T12:57:16;101050.53;;;22.85
60731;BMP280;46580;52.114;11.674;2022-09-12T13:00:06;101053.47;;;22.75
60731;BMP280;46580;52.114;11.674;2022-09-12T13:03:08;101046.72;;;22.67
60731;BMP280;46580;52.114;11.674;2022-09-12T13:05:37;101042.72;;;22.56
60731;BMP280;46580;52.114;11.674;2022-09-12T13:16:01;101027.00;;;23.11
60731;BMP280;46580;52.114;11.674;2022-09-12T13:18:31;101023.06;;;23.42
60731;BMP280;46580;52.114;11.674;2022-09-12T13:21:11;101021.31;;;23.49
60731;BMP280;46580;52.114;11.674;2022-09-12T13:23:37;101015.13;;;23.36
60731;BMP280;46580;52.114;11.674;2022-09-12T13:26:12;101018.44;;;23.44
60731;BMP280;46580;52.114;11.674;2022-09-12T13:28:38;101009.50;;;23.66
60731;BMP280;46580;52.114;11.674;2022-09-12T13:31:18;101009.72;;;23.64
60731;BMP280;46580;52.114;11.674;2022-09-12T13:33:53;101003.66;;;23.64
60731;BMP280;46580;52.114;11.674;2022-09-12T13:39:39;100997.28;;;24.05
60731;BMP280;46580;52.114;11.674;2022-09-12T13:42:41;100996.06;;;23.81
60731;BMP280;46580;52.114;11.674;2022-09-12T13:45:19;100991.38;;;24.04
60731;BMP280;46580;52.114;11.674;2022-09-12T13:47:47;100984.91;;;24.06
60731;BMP280;46580;52.114;11.674;2022-09-12T13:50:26;100992.19;;;24.04
60731;BMP280;46580;52.114;11.674;2022-09-12T13:52:55;100985.69;;;24.00
60731;BMP280;46580;52.114;11.674;2022-09-12T13:55:28;100988.78;;;24.10
60731;BMP280;46580;52.114;11.674;2022-09-12T13:58:12;100982.84;;;23.95
60731;BMP280;46580;52.114;11.674;2022-09-12T14:00:39;100981.53;;;23.85
60731;BMP280;46580;52.114;11.674;2022-09-12T14:03:23;100978.81;;;23.99
60731;BMP280;46580;52.114;11.674;2022-09-12T14:06:08;100982.09;;;23.81
60731;BMP280;46580;52.114;11.674;2022-09-12T14:08:33;100968.97;;;23.81
60731;BMP280;46580;52.114;11.674;2022-09-12T14:11:06;100970.81;;;23.86
60731;BMP280;46580;52.114;11.674;2022-09-12T14:13:32;100960.97;;;23.62
60731;BMP280;46580;52.114;11.674;2022-09-12T14:16:00;100967.22;;;23.34
60731;BMP280;46580;52.114;11.674;2022-09-12T14:18:28;100971.34;;;23.22
60731;BMP280;46580;52.114;11.674;2022-09-12T14:21:07;100967.09;;;23.21
60731;BMP280;46580;52.114;11.674;2022-09-12T14:23:38;100966.34;;;23.07
60731;BMP280;46580;52.114;11.674;2022-09-12T14:26:09;100962.22;;;22.98
60731;BMP280;46580;52.114;11.674;2022-09-12T14:28:39;100963.25;;;22.97
60731;BMP280;46580;52.114;11.674;2022-09-12T14:33:51;100962.47;;;22.62
60731;BMP280;46580;52.114;11.674;2022-09-12T14:38:48;100953.09;;;22.73
60731;BMP280;46580;52.114;11.674;2022-09-12T14:41:22;100953.84;;;22.68
60731;BMP280;46580;52.114;11.674;2022-09-12T14:43:54;100954.91;;;22.73
60731;BMP280;46580;52.114;11.674;2022-09-12T14:46:30;100954.38;;;22.77
60731;BMP280;46580;52.114;11.674;2022-09-12T14:49:01;100958.88;;;23.04
60731;BMP280;46580;52.114;11.674;2022-09-12T14:51:53;100946.34;;;23.26
60731;BMP280;46580;52.114;11.674;2022-09-12T14:56:55;100944.06;;;23.23
60731;BMP280;46580;52.114;11.674;2022-09-12T15:05:13;100937.13;;;23.63
60731;BMP280;46580;52.114;11.674;2022-09-12T15:15:31;100927.38;;;23.57
60731;BMP280;46580;52.114;11.674;2022-09-12T15:17:57;100926.69;;;23.76
60731;BMP280;46580;52.114;11.674;2022-09-12T15:20:23;100924.75;;;23.57
60731;BMP280;46580;52.114;11.674;2022-09-12T15:22:53;100916.19;;;23.22
60731;BMP280;46580;52.114;11.674;2022-09-12T15:25:19;100916.38;;;23.21
60731;BMP280;46580;52.114;11.674;2022-09-12T15:27:45;100911.31;;;23.19
60731;BMP280;46580;52.114;11.674;2022-09-12T15:30:11;100909.03;;;23.10
60731;BMP280;46580;52.114;11.674;2022-09-12T15:32:42;100913.81;;;23.07
60731;BMP280;46580;52.114;11.674;2022-09-12T15:35:16;100904.59;;;23.11
60731;BMP280;46580;52.114;11.674;2022-09-12T15:37:42;100907.34;;;23.03
60731;BMP280;46580;52.114;11.674;2022-09-12T15:40:11;100907.06;;;22.98
60731;BMP280;46580;52.114;11.674;2022-09-12T15:42:37;100897.75;;;23.16
60731;BMP280;46580;52.114;11.674;2022-09-12T15:45:21;100896.22;;;23.01
60731;BMP280;46580;52.114;11.674;2022-09-12T15:47:50;100902.28;;;23.01
60731;BMP280;46580;52.114;11.674;2022-09-12T15:50:18;100897.72;;;23.10
60731;BMP280;46580;52.114;11.674;2022-09-12T15:52:44;100905.47;;;22.97
60731;BMP280;46580;52.114;11.674;2022-09-12T15:55:22;100905.72;;;23.02
60731;BMP280;46580;52.114;11.674;2022-09-12T15:57:55;100904.09;;;23.01
60731;BMP280;46580;52.114;11.674;2022-09-12T16:00:24;100910.06;;;22.89
60731;BMP280;46580;52.114;11.674;2022-09-12T16:03:00;100908.59;;;22.86
60731;BMP280;46580;52.114;11.674;2022-09-12T16:05:38;100899.25;;;22.77
60731;BMP280;46580;52.114;11.674;2022-09-12T16:08:04;100895.38;;;22.73
60731;BMP280;46580;52.114;11.674;2022-09-12T16:10:29;100891.44;;;22.84
60731;BMP280;46580;52.114;11.674;2022-09-12T16:13:01;100892.13;;;22.98
60731;BMP280;46580;52.114;11.674;2022-09-12T16:15:34;100887.63;;;23.13
60731;BMP280;46580;52.114;11.674;2022-09-12T16:17:59;100884.72;;;23.02
60731;BMP280;46580;52.114;11.674;2022-09-12T16:20:25;100883.44;;;22.98
60731;BMP280;46580;52.114;11.674;2022-09-12T16:22:51;100878.00;;;22.99
60731;BMP280;46580;52.114;11.674;2022-09-12T16:25:22;100876.69;;;22.83
60731;BMP280;46580;52.114;11.674;2022-09-12T16:27:49;100878.84;;;22.79
60731;BMP280;46580;52.114;11.674;2022-09-12T16:30:17;100878.88;;;22.59
60731;BMP280;46580;52.114;11.674;2022-09-12T16:32:43;100883.59;;;22.49
60731;BMP280;46580;52.114;11.674;2022-09-12T16:35:08;100888.22;;;22.47
60731;BMP280;46580;52.114;11.674;2022-09-12T16:37:34;100876.28;;;22.45
60731;BMP280;46580;52.114;11.674;2022-09-12T16:40:00;100873.09;;;22.29
60731;BMP280;46580;52.114;11.674;2022-09-12T16:42:32;100869.84;;;22.27
60731;BMP280;46580;52.114;11.674;2022-09-12T16:45:00;100864.22;;;22.09
60731;BMP280;46580;52.114;11.674;2022-09-12T16:47:26;100860.66;;;22.17